sensor_id;sensor_type;location;lat;lon;timestamp;pressure;altitude;pressure_sealevel;temperature;humidity
57086;BME280;42964;42.910;23.792;2022-09-20T00:02:08;97767.50;;;10.25;83.09
57086;BME280;42964;42.910;23.792;2022-09-20T00:07:07;97763.19;;;10.29;81.93
57086;BME280;42964;42.910;23.792;2022-09-20T00:12:06;97738.97;;;10.24;81.78
57086;BME280;42964;42.910;23.792;2022-09-20T00:17:05;97744.16;;;10.27;81.25
57086;BME280;42964;42.910;23.792;2022-09-20T00:22:04;97748.50;;;10.22;81.71
57086;BME280;42964;42.910;23.792;2022-09-20T00:27:03;97749.34;;;10.17;81.42
57086;BME280;42964;42.910;23.792;2022-09-20T00:32:02;97751.06;;;10.09;81.41
57086;BME280;42964;42.910;23.792;2022-09-20T00:37:01;97750.22;;;9.98;82.34
57086;BME280;42964;42.910;23.792;2022-09-20T00:42:00;97757.09;;;9.91;82.59
57086;BME280;42964;42.910;23.792;2022-09-20T00:47:00;97746.69;;;9.79;83.52
57086;BME280;42964;42.910;23.792;2022-09-20T00:52:01;97757.03;;;9.70;83.50
57086;BME280;42964;42.910;23.792;2022-09-20T00:57:00;97732.84;;;9.54;84.06
57086;BME280;42964;42.910;23.792;2022-09-20T01:07:04;97744.88;;;9.46;84.58
57086;BME280;42964;42.910;23.792;2022-09-20T01:12:10;97715.41;;;9.21;85.02
57086;BME280;42964;42.910;23.792;2022-09-20T01:17:11;97735.25;;;9.20;86.48
57086;BME280;42964;42.910;23.792;2022-09-20T01:27:55;97751.63;;;9.07;86.75
57086;BME280;42964;42.910;23.792;2022-09-20T01:33:13;97750.69;;;9.02;86.84
57086;BME280;42964;42.910;23.792;2022-09-20T01:43:53;97747.16;;;8.80;86.96
57086;BME280;42964;42.910;23.792;2022-09-20T02:42:44;97737.75;;;7.79;89.35
57086;BME280;42964;42.910;23.792;2022-09-20T02:47:46;97742.81;;;7.69;89.79
57086;BME280;42964;42.910;23.792;2022-09-20T02:58:12;97744.31;;;7.48;90.72
57086;BME280;42964;42.910;23.792;2022-09-20T03:03:22;97751.00;;;7.34;91.48
57086;BME280;42964;42.910;23.792;2022-09-20T03:45:53;97786.31;;;6.72;91.90
57086;BME280;42964;42.910;23.792;2022-09-20T03:51:07;97791.13;;;6.49;92.58
57086;BME280;42964;42.910;23.792;2022-09-20T04:07:04;97810.47;;;6.26;93.64
57086;BME280;42964;42.910;23.792;2022-09-20T04:12:19;97798.25;;;6.12;92.67
57086;BME280;42964;42.910;23.792;2022-09-20T04:17:30;97811.16;;;6.14;92.94
57086;BME280;42964;42.910;23.792;2022-09-20T04:22:33;97823.09;;;6.09;92.68
57086;BME280;42964;42.910;23.792;2022-09-20T04:27:40;97827.41;;;6.11;93.46
57086;BME280;42964;42.910;23.792;2022-09-20T04:32:59;97830.13;;;6.17;92.82
57086;BME280;42964;42.910;23.792;2022-09-20T04:38:01;97835.38;;;6.24;92.63
57086;BME280;42964;42.910;23.792;2022-09-20T05:05:23;97849.22;;;6.83;92.96
57086;BME280;42964;42.910;23.792;2022-09-20T05:20:49;97843.31;;;7.50;93.24
57086;BME280;42964;42.910;23.792;2022-09-20T05:26:12;97834.97;;;7.71;92.80
57086;BME280;42964;42.910;23.792;2022-09-20T05:41:56;97842.13;;;7.95;92.70
57086;BME280;42964;42.910;23.792;2022-09-20T05:52:24;97833.66;;;8.10;93.11
57086;BME280;42964;42.910;23.792;2022-09-20T06:18:37;97839.53;;;8.96;90.46
57086;BME280;42964;42.910;23.792;2022-09-20T06:23:38;97844.00;;;9.14;89.83
57086;BME280;42964;42.910;23.792;2022-09-20T06:28:40;97839.78;;;9.30;89.10
57086;BME280;42964;42.910;23.792;2022-09-20T06:34:02;97839.88;;;9.47;88.28
57086;BME280;42964;42.910;23.792;2022-09-20T06:39:13;97836.44;;;9.55;86.87
57086;BME280;42964;42.910;23.792;2022-09-20T06:44:32;97841.69;;;9.69;85.92
57086;BME280;42964;42.910;23.792;2022-09-20T06:49:31;97832.25;;;9.87;85.85
57086;BME280;42964;42.910;23.792;2022-09-20T06:54:33;97833.13;;;9.95;84.24
57086;BME280;42964;42.910;23.792;2022-09-20T06:59:32;97847.03;;;10.15;82.99
57086;BME280;42964;42.910;23.792;2022-09-20T07:04:31;97836.66;;;10.35;82.71
57086;BME280;42964;42.910;23.792;2022-09-20T07:09:30;97835.81;;;10.52;78.06
57086;BME280;42964;42.910;23.792;2022-09-20T07:14:29;97852.25;;;10.72;76.98
57086;BME280;42964;42.910;23.792;2022-09-20T07:19:28;97852.28;;;11.04;76.69
57086;BME280;42964;42.910;23.792;2022-09-20T07:24:27;97849.59;;;11.34;73.84
57086;BME280;42964;42.910;23.792;2022-09-20T07:29:29;97850.41;;;11.65;70.66
57086;BME280;42964;42.910;23.792;2022-09-20T07:34:29;97845.88;;;12.04;68.64
57086;BME280;42964;42.910;23.792;2022-09-20T07:39:28;97841.28;;;12.46;66.43
57086;BME280;42964;42.910;23.792;2022-09-20T07:44:27;97850.50;;;12.93;64.21
57086;BME280;42964;42.910;23.792;2022-09-20T07:49:27;97838.66;;;13.46;58.72
57086;BME280;42964;42.910;23.792;2022-09-20T07:54:29;97836.59;;;13.77;55.35
57086;BME280;42964;42.910;23.792;2022-09-20T07:59:28;97824.91;;;14.08;54.07
57086;BME280;42964;42.910;23.792;2022-09-20T08:04:27;97827.97;;;14.34;50.95
57086;BME280;42964;42.910;23.792;2022-09-20T08:09:26;97826.41;;;14.24;49.77
57086;BME280;42964;42.910;23.792;2022-09-20T08:14:25;97831.50;;;14.30;49.42
57086;BME280;42964;42.910;23.792;2022-09-20T08:19:24;97828.19;;;14.19;48.48
57086;BME280;42964;42.910;23.792;2022-09-20T08:24:23;97811.66;;;14.20;48.46
57086;BME280;42964;42.910;23.792;2022-09-20T08:29:24;97822.19;;;14.12;47.64
57086;BME280;42964;42.910;23.792;2022-09-20T08:34:23;97811.53;;;14.28;48.01
57086;BME280;42964;42.910;23.792;2022-09-20T08:39:22;97806.75;;;14.56;47.72
57086;BME280;42964;42.910;23.792;2022-09-20T08:44:32;97806.84;;;15.04;45.49
57086;BME280;42964;42.910;23.792;2022-09-20T08:49:32;97800.63;;;15.11;46.27
57086;BME280;42964;42.910;23.792;2022-09-20T08:54:33;97785.97;;;15.02;45.48
57086;BME280;42964;42.910;23.792;2022-09-20T08:59:32;97781.56;;;15.06;43.92
57086;BME280;42964;42.910;23.792;2022-09-20T09:04:35;97782.16;;;15.20;43.78
57086;BME280;42964;42.910;23.792;2022-09-20T09:09:35;97782.72;;;14.90;44.01
57086;BME280;42964;42.910;23.792;2022-09-20T09:14:36;97778.31;;;14.92;44.36
57086;BME280;42964;42.910;23.792;2022-09-20T09:19:50;97762.03;;;15.24;43.75
57086;BME280;42964;42.910;23.792;2022-09-20T09:30:27;97767.63;;;15.49;40.69
57086;BME280;42964;42.910;23.792;2022-09-20T09:35:30;97757.09;;;15.52;41.46
57086;BME280;42964;42.910;23.792;2022-09-20T09:40:30;97753.47;;;15.59;42.63
57086;BME280;42964;42.910;23.792;2022-09-20T09:45:35;97744.38;;;15.76;42.25
57086;BME280;42964;42.910;23.792;2022-09-20T09:50:36;97748.69;;;15.81;40.79
57086;BME280;42964;42.910;23.792;2022-09-20T09:55:47;97738.09;;;15.86;40.52
57086;BME280;42964;42.910;23.792;2022-09-20T10:00:51;97733.00;;;16.19;42.19
57086;BME280;42964;42.910;23.792;2022-09-20T10:12:47;97719.22;;;16.79;40.43
57086;BME280;42964;42.910;23.792;2022-09-20T10:17:28;97716.75;;;17.07;36.47
57086;BME280;42964;42.910;23.792;2022-09-20T10:22:43;97715.72;;;17.13;36.67
57086;BME280;42964;42.910;23.792;2022-09-20T10:33:15;97714.72;;;16.86;38.19
57086;BME280;42964;42.910;23.792;2022-09-20T10:38:16;97712.59;;;15.94;40.22
57086;BME280;42964;42.910;23.792;2022-09-20T10:48:45;97711.94;;;16.23;40.33
57086;BME280;42964;42.910;23.792;2022-09-20T10:59:33;97717.09;;;16.61;39.66
57086;BME280;42964;42.910;23.792;2022-09-20T11:10:20;97693.00;;;17.43;37.25
57086;BME280;42964;42.910;23.792;2022-09-20T11:15:24;97681.13;;;17.89;38.85
57086;BME280;42964;42.910;23.792;2022-09-20T11:20:39;97666.03;;;18.49;38.73
57086;BME280;42964;42.910;23.792;2022-09-20T11:25:53;97674.00;;;18.73;37.00
57086;BME280;42964;42.910;23.792;2022-09-20T11:31:06;97676.94;;;17.54;37.93
57086;BME280;42964;42.910;23.792;2022-09-20T11:36:15;97673.78;;;17.13;38.36
57086;BME280;42964;42.910;23.792;2022-09-20T11:41:20;97673.81;;;17.11;38.84
57086;BME280;42964;42.910;23.792;2022-09-20T11:46:29;97668.59;;;17.41;38.18
57086;BME280;42964;42.910;23.792;2022-09-20T11:56:51;97660.47;;;17.49;37.27
57086;BME280;42964;42.910;23.792;2022-09-20T12:01:55;97656.91;;;17.51;36.51
57086;BME280;42964;42.910;23.792;2022-09-20T12:07:06;97661.38;;;17.77;36.86
57086;BME280;42964;42.910;23.792;2022-09-20T12:28:39;97641.97;;;18.87;33.89
57086;BME280;42964;42.910;23.792;2022-09-20T12:33:58;97626.19;;;18.61;34.07
57086;BME280;42964;42.910;23.792;2022-09-20T12:54:50;97621.56;;;18.70;34.46
57086;BME280;42964;42.910;23.792;2022-09-20T12:59:55;97634.72;;;18.93;34.87
57086;BME280;42964;42.910;23.792;2022-09-20T13:04:55;97636.00;;;18.56;34.30
57086;BME280;42964;42.910;23.792;2022-09-20T13:09:54;97614.97;;;18.56;34.31
57086;BME280;42964;42.910;23.792;2022-09-20T13:14:53;97618.94;;;18.43;34.82
57086;BME280;42964;42.910;23.792;2022-09-20T13:19:53;97618.84;;;18.46;34.90
57086;BME280;42964;42.910;23.792;2022-09-20T13:25:02;97622.47;;;18.17;35.76
57086;BME280;42964;42.910;23.792;2022-09-20T13:30:28;97629.66;;;17.85;36.08
57086;BME280;42964;42.910;23.792;2022-09-20T13:35:30;97631.47;;;17.83;36.62
57086;BME280;42964;42.910;23.792;2022-09-20T13:40:35;97630.63;;;17.53;37.24
57086;BME280;42964;42.910;23.792;2022-09-20T13:45:40;97633.66;;;17.39;38.01
57086;BME280;42964;42.910;23.792;2022-09-20T13:50:40;97632.09;;;17.04;38.08
57086;BME280;42964;42.910;23.792;2022-09-20T13:55:39;97637.91;;;17.13;38.84
57086;BME280;42964;42.910;23.792;2022-09-20T14:00:45;97633.13;;;16.98;39.13
57086;BME280;42964;42.910;23.792;2022-09-20T14:05:50;97630.66;;;16.93;39.25
57086;BME280;42964;42.910;23.792;2022-09-20T14:16:26;97630.25;;;16.75;39.50
57086;BME280;42964;42.910;23.792;2022-09-20T14:21:27;97632.94;;;16.73;39.70
57086;BME280;42964;42.910;23.792;2022-09-20T14:26:31;97627.28;;;16.88;38.89
57086;BME280;42964;42.910;23.792;2022-09-20T14:31:34;97637.84;;;16.85;39.20
57086;BME280;42964;42.910;23.792;2022-09-20T14:36:34;97633.53;;;16.51;39.69
57086;BME280;42964;42.910;23.792;2022-09-20T14:41:35;97626.78;;;16.41;40.05
57086;BME280;42964;42.910;23.792;2022-09-20T14:46:36;97632.72;;;16.48;40.52
57086;BME280;42964;42.910;23.792;2022-09-20T14:51:36;97629.41;;;16.41;40.92
57086;BME280;42964;42.910;23.792;2022-09-20T14:56:38;97639.34;;;16.28;41.27
57086;BME280;42964;42.910;23.792;2022-09-20T15:01:40;97637.94;;;16.15;41.44
57086;BME280;42964;42.910;23.792;2022-09-20T15:06:40;97641.72;;;16.03;41.63
57086;BME280;42964;42.910;23.792;2022-09-20T15:11:40;97650.75;;;15.90;41.70
57086;BME280;42964;42.910;23.792;2022-09-20T15:16:39;97647.78;;;15.66;42.01
57086;BME280;42964;42.910;23.792;2022-09-20T15:21:37;97652.66;;;15.44;42.75
57086;BME280;42964;42.910;23.792;2022-09-20T15:26:36;97646.13;;;15.25;42.95
57086;BME280;42964;42.910;23.792;2022-09-20T15:31:35;97657.63;;;15.16;43.23
57086;BME280;42964;42.910;23.792;2022-09-20T15:36:34;97657.69;;;15.13;43.20
57086;BME280;42964;42.910;23.792;2022-09-20T15:41:34;97656.22;;;15.00;43.11
57086;BME280;42964;42.910;23.792;2022-09-20T15:46:33;97666.75;;;14.97;43.43
57086;BME280;42964;42.910;23.792;2022-09-20T15:51:33;97661.75;;;14.85;44.15
57086;BME280;42964;42.910;23.792;2022-09-20T15:56:35;97664.41;;;14.81;44.22
57086;BME280;42964;42.910;23.792;2022-09-20T16:01:37;97658.44;;;14.76;44.11
57086;BME280;42964;42.910;23.792;2022-09-20T16:06:39;97666.19;;;14.79;44.23
57086;BME280;42964;42.910;23.792;2022-09-20T16:11:39;97673.19;;;14.79;44.48
57086;BME280;42964;42.910;23.792;2022-09-20T16:16:38;97667.03;;;14.81;45.04
57086;BME280;42964;42.910;23.792;2022-09-20T16:21:38;97672.19;;;14.85;45.35
57086;BME280;42964;42.910;23.792;2022-09-20T16:26:38;97678.38;;;14.80;46.21
57086;BME280;42964;42.910;23.792;2022-09-20T16:31:38;97689.00;;;14.68;46.91
57086;BME280;42964;42.910;23.792;2022-09-20T16:36:38;97690.88;;;14.61;48.26
57086;BME280;42964;42.910;23.792;2022-09-20T16:41:42;97695.53;;;14.46;48.36
57086;BME280;42964;42.910;23.792;2022-09-20T16:46:43;97704.28;;;14.41;48.96
57086;BME280;42964;42.910;23.792;2022-09-20T16:51:43;97700.91;;;14.36;49.14
57086;BME280;42964;42.910;23.792;2022-09-20T16:56:48;97705.28;;;14.34;49.81
57086;BME280;42964;42.910;23.792;2022-09-20T17:01:48;97711.50;;;14.27;49.59
57086;BME280;42964;42.910;23.792;2022-09-20T17:06:48;97715.88;;;14.25;49.70
57086;BME280;42964;42.910;23.792;2022-09-20T17:11:48;97710.72;;;14.20;50.35
57086;BME280;42964;42.910;23.792;2022-09-20T17:16:47;97704.81;;;14.11;49.98
57086;BME280;42964;42.910;23.792;2022-09-20T17:21:48;97718.00;;;14.00;50.93
57086;BME280;42964;42.910;23.792;2022-09-20T17:26:48;97727.72;;;13.90;51.29
57086;BME280;42964;42.910;23.792;2022-09-20T17:31:49;97727.06;;;13.74;51.97
57086;BME280;42964;42.910;23.792;2022-09-20T17:36:51;97728.97;;;13.63;53.13
57086;BME280;42964;42.910;23.792;2022-09-20T17:41:51;97733.47;;;13.50;53.79
57086;BME280;42964;42.910;23.792;2022-09-20T17:46:50;97740.59;;;13.34;53.99
57086;BME280;42964;42.910;23.792;2022-09-20T17:51:53;97737.34;;;13.15;53.94
57086;BME280;42964;42.910;23.792;2022-09-20T17:56:53;97733.28;;;12.93;54.44
57086;BME280;42964;42.910;23.792;2022-09-20T18:01:53;97753.38;;;12.79;55.32
57086;BME280;42964;42.910;23.792;2022-09-20T18:06:52;97750.13;;;12.57;55.31
57086;BME280;42964;42.910;23.792;2022-09-20T18:11:53;97751.22;;;12.29;55.92
57086;BME280;42964;42.910;23.792;2022-09-20T18:16:58;97754.00;;;12.02;56.21
57086;BME280;42964;42.910;23.792;2022-09-20T18:21:59;97763.59;;;11.87;56.62
57086;BME280;42964;42.910;23.792;2022-09-20T18:26:59;97758.56;;;11.64;57.96
57086;BME280;42964;42.910;23.792;2022-09-20T19:10:10;97800.28;;;9.83;63.78
57086;BME280;42964;42.910;23.792;2022-09-20T19:26:07;97802.88;;;9.88;64.68
57086;BME280;42964;42.910;23.792;2022-09-20T19:31:20;97805.47;;;9.82;65.29
57086;BME280;42964;42.910;23.792;2022-09-20T19:36:20;97807.19;;;9.75;65.30
57086;BME280;42964;42.910;23.792;2022-09-20T19:52:17;97806.19;;;9.42;67.20
57086;BME280;42964;42.910;23.792;2022-09-20T19:57:22;97820.00;;;9.46;66.76
57086;BME280;42964;42.910;23.792;2022-09-20T20:02:22;97826.00;;;9.37;67.69
57086;BME280;42964;42.910;23.792;2022-09-20T20:07:29;97827.69;;;9.29;68.81
57086;BME280;42964;42.910;23.792;2022-09-20T20:12:42;97828.47;;;9.20;69.33
57086;BME280;42964;42.910;23.792;2022-09-20T20:17:56;97830.16;;;9.10;69.64
57086;BME280;42964;42.910;23.792;2022-09-20T20:23:21;97828.34;;;8.99;70.51
57086;BME280;42964;42.910;23.792;2022-09-20T20:28:25;97823.91;;;8.81;70.67
57086;BME280;42964;42.910;23.792;2022-09-20T20:33:25;97838.53;;;8.74;70.86
57086;BME280;42964;42.910;23.792;2022-09-20T20:38:24;97835.06;;;8.70;71.66
57086;BME280;42964;42.910;23.792;2022-09-20T20:43:23;97827.16;;;8.54;72.30
57086;BME280;42964;42.910;23.792;2022-09-20T20:48:23;97803.75;;;8.38;72.31
57086;BME280;42964;42.910;23.792;2022-09-20T20:53:22;97840.09;;;8.50;72.94
57086;BME280;42964;42.910;23.792;2022-09-20T20:58:21;97832.19;;;8.35;72.63
57086;BME280;42964;42.910;23.792;2022-09-20T21:03:20;97827.78;;;8.25;73.13
57086;BME280;42964;42.910;23.792;2022-09-20T21:08:19;97848.41;;;8.22;74.64
57086;BME280;42964;42.910;23.792;2022-09-20T21:13:18;97843.88;;;7.98;77.00
57086;BME280;42964;42.910;23.792;2022-09-20T21:18:17;97849.84;;;7.92;77.74
57086;BME280;42964;42.910;23.792;2022-09-20T21:23:16;97841.03;;;7.75;77.36
57086;BME280;42964;42.910;23.792;2022-09-20T21:28:15;97852.06;;;7.63;77.74
57086;BME280;42964;42.910;23.792;2022-09-20T21:33:14;97833.03;;;7.53;77.24
57086;BME280;42964;42.910;23.792;2022-09-20T21:38:13;97839.84;;;7.50;78.49
57086;BME280;42964;42.910;23.792;2022-09-20T21:43:12;97839.06;;;7.52;78.05
57086;BME280;42964;42.910;23.792;2022-09-20T21:48:11;97838.16;;;7.50;78.35
57086;BME280;42964;42.910;23.792;2022-09-20T21:53:10;97856.25;;;7.53;78.54
57086;BME280;42964;42.910;23.792;2022-09-20T21:58:09;97831.09;;;7.38;78.81
57086;BME280;42964;42.910;23.792;2022-09-20T22:03:08;97835.34;;;7.35;78.67
57086;BME280;42964;42.910;23.792;2022-09-20T22:08:07;97852.59;;;7.39;79.21
57086;BME280;42964;42.910;23.792;2022-09-20T22:13:07;97803.09;;;7.03;80.38
57086;BME280;42964;42.910;23.792;2022-09-20T22:18:05;97817.84;;;7.14;80.19
57086;BME280;42964;42.910;23.792;2022-09-20T22:23:05;97815.97;;;7.02;80.68
57086;BME280;42964;42.910;23.792;2022-09-20T22:28:04;97853.09;;;7.10;81.69
57086;BME280;42964;42.910;23.792;2022-09-20T22:33:03;97844.44;;;7.08;81.10
57086;BME280;42964;42.910;23.792;2022-09-20T22:38:02;97841.75;;;6.99;81.29
57086;BME280;42964;42.910;23.792;2022-09-20T22:43:01;97852.94;;;7.01;81.67
57086;BME280;42964;42.910;23.792;2022-09-20T22:48:00;97837.13;;;6.78;82.43
57086;BME280;42964;42.910;23.792;2022-09-20T22:52:59;97852.53;;;6.75;83.12
57086;BME280;42964;42.910;23.792;2022-09-20T22:57:58;97840.31;;;6.61;82.81
57086;BME280;42964;42.910;23.792;2022-09-20T23:02:57;97854.25;;;6.73;83.26
57086;BME280;42964;42.910;23.792;2022-09-20T23:07:56;97833.47;;;6.64;83.26
57086;BME280;42964;42.910;23.792;2022-09-20T23:12:55;97841.94;;;6.56;83.41
57086;BME280;42964;42.910;23.792;2022-09-20T23:17:54;97851.28;;;6.51;83.64
57086;BME280;42964;42.910;23.792;2022-09-20T23:22:53;97851.19;;;6.44;83.77
57086;BME280;42964;42.910;23.792;2022-09-20T23:27:53;97845.94;;;6.39;83.89
57086;BME280;42964;42.910;23.792;2022-09-20T23:32:52;97835.19;;;6.13;84.57
57086;BME280;42964;42.910;23.792;2022-09-20T23:37:51;97847.94;;;6.07;85.16
57086;BME280;42964;42.910;23.792;2022-09-20T23:42:50;97815.88;;;5.89;84.67
57086;BME280;42964;42.910;23.792;2022-09-20T23:47:49;97852.28;;;6.08;84.79
57086;BME280;42964;42.910;23.792;2022-09-20T23:52:48;97856.50;;;6.04;84.90
57086;BME280;42964;42.910;23.792;2022-09-20T23:57:47;97846.91;;;5.97;84.87
